WEATHER DATA

YESTERDAY
Time Temp. Dewp. Hum. Bar.
00:04 5.6 3.3 85 1003.3
00:14 5.5 3.2 85 1003.3
00:24 5.4 3.1 85 1003.3
00:34 5.4 2.9 84 1003.2
00:45 5.3 2.8 84 1003.1
00:55 5.2 2.7 84 1003.1
01:05 5.1 2.6 84 1003.2
01:15 5 2.4 83 1003.2
01:25 4.9 2.3 83 1003.2
01:35 4.9 2.3 83 1003.2
01:45 5 2.4 83 1003.2
01:56 4.7 1.7 81 1003.2
02:06 4.5 1.9 83 1003.2
02:16 4.5 1.9 83 1003.1
02:25 4.5 2 84 1003
02:36 4.5 2.2 85 1002.8
02:46 4.6 2.3 85 1002.6
02:56 4.5 2.2 85 1002.7
03:06 4.6 2.3 85 1002.7
03:17 4.5 2 84 1002.7
03:27 4.5 2 84 1002.7
03:36 4.4 1.9 84 1002.8
03:47 4.4 1.9 84 1002.7
03:57 4.4 1.9 84 1002.6
04:07 4.4 1.9 84 1002.7
04:17 4.4 1.9 84 1002.6
04:28 4.4 1.9 84 1002.7
04:38 4.5 2 84 1002.8
04:48 4.5 2 84 1002.7
04:58 4.5 2 84 1002.8
05:08 4.5 2 84 1002.8
05:18 4.4 1.9 84 1002.8
05:28 4.4 2.1 85 1002.8
05:39 4.5 2.4 86 1002.8
05:49 4.6 2.5 86 1003
05:58 4.7 2.6 86 1003
06:08 4.8 2.7 86 1003
06:19 4.9 2.8 86 1003
06:29 5 2.9 86 1003
06:39 5 2.9 86 1003.1
06:49 5 3 87 1003.1
07:00 5.1 3.1 87 1003.2
07:09 5.1 3.1 87 1003.4
07:19 5.2 3.4 88 1003.4
07:30 5.3 3.5 88 1003.4
07:40 5.3 3.5 88 1003.4
07:50 5.5 3.8 89 1003.4
08:00 5.6 3.9 89 1003.4
08:11 5.7 4 89 1003.5
08:20 5.8 4.1 89 1003.4
08:30 5.9 4.2 89 1003.4
08:41 6 4.3 89 1003.5
08:51 6.1 4.6 90 1003.7
09:01 6.3 4.6 89 1003.7
09:09 6.4 4.7 89 1003.8
09:21 6.5 4.8 89 1003.8
09:32 6.7 5.2 90 1003.8
09:42 6.9 5.4 90 1003.9
09:52 7 5.5 90 1003.8
10:02 7.3 5.8 90 1003.8
10:13 7.6 5.9 89 1003.8
10:23 7.9 5.9 87 1003.9
10:33 7.9 5.7 86 1004
10:43 8 5.8 86 1004
10:53 8.1 5.4 83 1003.9
11:03 8.2 5.3 82 1003.8
11:13 8.3 5.6 83 1003.5
11:24 8.5 5.6 82 1003.4
11:34 8.8 5.9 82 1003.4
11:44 8.9 5.8 81 1003.4
11:54 8.8 5.7 81 1003.4
12:04 8.8 6.1 83 1003.3
12:14 8.9 6.2 83 1003.2
12:24 9 6.1 82 1003.2
12:34 9.3 5.3 76 1003.1
12:45 9.4 5.2 75 1002.8
12:55 9.6 6.1 79 1002.8
13:05 9.7 6.2 79 1003
13:16 9.6 6.3 80 1002.8
13:25 9.5 6.4 81 1003
13:35 9.4 6.3 81 1002.8
13:45 9.3 6.2 81 1002.8
13:56 9.2 6.3 82 1002.8
14:06 9.2 6.3 82 1003
14:16 9.1 6.2 82 1003
14:26 9 6.1 82 1003.1
14:36 9 6.3 83 1003.1
14:46 9 6.3 83 1003
14:56 8.9 6.2 83 1003
15:07 8.9 6.3 84 1003.1
15:17 8.8 6.2 84 1003.1
15:27 8.8 6.2 84 1003.2
15:37 8.7 6.3 85 1003.2
15:48 8.7 6.3 85 1003.3
15:57 8.7 6.3 85 1003.4
16:07 8.6 6.4 86 1003.3
16:18 8.5 6.3 86 1003.4
16:28 8.4 6.2 86 1003.4
16:38 8.3 6.1 86 1003.5
16:48 8.2 6 86 1003.5
16:59 8.1 5.9 86 1003.7
17:08 8 5.8 86 1003.7
17:18 7.9 5.7 86 1003.8
17:28 7.9 5.7 86 1003.7
17:39 7.8 5.6 86 1003.5
17:49 7.6 5.2 85 1003.8
17:59 7.5 5.1 85 1003.9
18:09 7.4 5 85 1003.9
18:19 7.3 4.8 84 1003.8
18:29 7.3 4.8 84 1004
18:39 7.1 4.6 84 1004.1
18:50 7 4.5 84 1004
18:59 6.9 4.2 83 1004.2
19:08 6.7 4 83 1004.2
19:19 6.6 3.9 83 1004.2
19:29 6.5 3.8 83 1004.2
19:39 6.5 3.8 83 1004.4
19:49 6.4 3.7 83 1004.4
20:00 6.3 3.6 83 1004.5
20:10 6.1 3.3 82 1004.7
20:19 6 3.3 83 1004.8
20:30 6 3.3 83 1004.8
20:40 5.9 3.1 82 1005
20:50 5.9 3.2 83 1005.3
21:00 5.9 3.1 82 1005.2
21:11 5.8 3 82 1005.2
21:21 5.8 3 82 1005.2
21:31 5.7 2.9 82 1005.2
21:41 5.7 2.9 82 1005.2
21:51 5.7 3 83 1005
22:01 5.7 3 83 1005
22:11 5.7 3 83 1005.3
22:22 5.6 2.8 82 1005
22:32 5.5 2.7 82 1004.9
22:41 5.4 2.7 83 1004.8
22:51 5.3 2.7 83 1004.8
23:02 5.3 2.8 84 1004.7
23:12 5.3 2.7 83 1004.7
23:22 5.2 2.6 83 1004.8
23:32 5.3 2.8 84 1004.8
23:43 5.2 2.6 83 1004.8
23:52 5.2 2.6 83 1005

DAY STATISTIC

2019-11-14
TEMPERATURE
AVERAGE
6.5
HIGH
9.7
13:05
LOW
4.4
03:36
PRESSURE
AVERAGE
1003.6
HIGH
1005.3
20:50
LOW
1002.6
02:46
DEWPOINT
AVERAGE
4.1
HIGH
6.4
13:25
LOW
1.7
01:56
HUMIDITY
AVERAGE
84
HIGH
90
08:51
LOW
75
12:45
TEMPERATURE (°C)
LOW
4.4
HIGH
9.7
AVERAGE
6.5
PRESSURE (hpa)
LOW
1002.6
HIGH
1005.3
AVERAGE
1003.6
DEVICE